sensor_id;sensor_type;location;lat;lon;timestamp;P1;durP1;ratioP1;P2;durP2;ratioP2
10535;SDS011;5316;49.538;8.352;2023-02-22T00:01:59;12.53;;;8.97;;
10535;SDS011;5316;49.538;8.352;2023-02-22T00:04:49;12.67;;;9.23;;
10535;SDS011;5316;49.538;8.352;2023-02-22T00:07:21;13.53;;;9.20;;
10535;SDS011;5316;49.538;8.352;2023-02-22T00:09:52;12.80;;;9.50;;
10535;SDS011;5316;49.538;8.352;2023-02-22T00:12:37;15.30;;;8.87;;
10535;SDS011;5316;49.538;8.352;2023-02-22T00:15:09;16.03;;;9.20;;
10535;SDS011;5316;49.538;8.352;2023-02-22T00:17:40;12.03;;;8.97;;
10535;SDS011;5316;49.538;8.352;2023-02-22T00:20:14;15.17;;;9.10;;
10535;SDS011;5316;49.538;8.352;2023-02-22T00:22:47;11.97;;;8.10;;
10535;SDS011;5316;49.538;8.352;2023-02-22T00:25:18;13.03;;;9.23;;
10535;SDS011;5316;49.538;8.352;2023-02-22T00:28:02;12.60;;;8.47;;
10535;SDS011;5316;49.538;8.352;2023-02-22T00:30:31;14.13;;;8.87;;
10535;SDS011;5316;49.538;8.352;2023-02-22T00:33:01;12.80;;;8.73;;
10535;SDS011;5316;49.538;8.352;2023-02-22T00:35:37;11.37;;;8.73;;
10535;SDS011;5316;49.538;8.352;2023-02-22T00:38:16;11.73;;;8.47;;
10535;SDS011;5316;49.538;8.352;2023-02-22T00:40:48;11.87;;;8.57;;
10535;SDS011;5316;49.538;8.352;2023-02-22T00:43:23;11.53;;;9.23;;
10535;SDS011;5316;49.538;8.352;2023-02-22T00:46:02;11.23;;;8.57;;
10535;SDS011;5316;49.538;8.352;2023-02-22T00:48:33;14.17;;;8.63;;
10535;SDS011;5316;49.538;8.352;2023-02-22T00:51:00;11.83;;;9.03;;
10535;SDS011;5316;49.538;8.352;2023-02-22T00:53:39;12.93;;;8.87;;
10535;SDS011;5316;49.538;8.352;2023-02-22T00:56:13;12.60;;;8.63;;
10535;SDS011;5316;49.538;8.352;2023-02-22T00:58:42;11.83;;;9.13;;
10535;SDS011;5316;49.538;8.352;2023-02-22T01:01:13;15.63;;;9.00;;
10535;SDS011;5316;49.538;8.352;2023-02-22T01:03:42;12.40;;;9.03;;
10535;SDS011;5316;49.538;8.352;2023-02-22T01:06:16;10.77;;;8.10;;
10535;SDS011;5316;49.538;8.352;2023-02-22T01:08:52;10.87;;;7.67;;
10535;SDS011;5316;49.538;8.352;2023-02-22T01:11:26;12.33;;;7.77;;
10535;SDS011;5316;49.538;8.352;2023-02-22T01:13:55;10.57;;;8.43;;
10535;SDS011;5316;49.538;8.352;2023-02-22T01:16:24;13.03;;;8.23;;
10535;SDS011;5316;49.538;8.352;2023-02-22T01:18:54;10.73;;;7.50;;
10535;SDS011;5316;49.538;8.352;2023-02-22T01:21:22;12.27;;;8.00;;
10535;SDS011;5316;49.538;8.352;2023-02-22T01:23:55;9.50;;;7.23;;
10535;SDS011;5316;49.538;8.352;2023-02-22T01:26:24;11.23;;;7.87;;
10535;SDS011;5316;49.538;8.352;2023-02-22T01:28:55;12.30;;;8.27;;
10535;SDS011;5316;49.538;8.352;2023-02-22T01:31:24;12.67;;;7.57;;
10535;SDS011;5316;49.538;8.352;2023-02-22T01:33:53;9.43;;;6.60;;
10535;SDS011;5316;49.538;8.352;2023-02-22T01:36:26;12.40;;;7.27;;
10535;SDS011;5316;49.538;8.352;2023-02-22T01:38:55;9.90;;;7.27;;
10535;SDS011;5316;49.538;8.352;2023-02-22T01:41:23;12.80;;;7.50;;
10535;SDS011;5316;49.538;8.352;2023-02-22T01:46:48;13.10;;;7.73;;
10535;SDS011;5316;49.538;8.352;2023-02-22T01:49:18;9.43;;;7.47;;
10535;SDS011;5316;49.538;8.352;2023-02-22T01:51:47;13.23;;;7.63;;
10535;SDS011;5316;49.538;8.352;2023-02-22T01:54:22;14.30;;;7.73;;
10535;SDS011;5316;49.538;8.352;2023-02-22T01:56:56;10.97;;;7.53;;
10535;SDS011;5316;49.538;8.352;2023-02-22T01:59:27;11.87;;;7.60;;
10535;SDS011;5316;49.538;8.352;2023-02-22T02:01:59;10.67;;;7.97;;
10535;SDS011;5316;49.538;8.352;2023-02-22T02:04:28;11.73;;;7.83;;
10535;SDS011;5316;49.538;8.352;2023-02-22T02:06:59;9.77;;;7.27;;
10535;SDS011;5316;49.538;8.352;2023-02-22T02:09:32;11.70;;;7.27;;
10535;SDS011;5316;49.538;8.352;2023-02-22T02:12:06;9.70;;;7.53;;
10535;SDS011;5316;49.538;8.352;2023-02-22T02:14:39;10.93;;;7.70;;
10535;SDS011;5316;49.538;8.352;2023-02-22T02:17:08;11.20;;;7.80;;
10535;SDS011;5316;49.538;8.352;2023-02-22T02:19:40;12.13;;;7.60;;
10535;SDS011;5316;49.538;8.352;2023-02-22T02:22:22;9.53;;;6.87;;
10535;SDS011;5316;49.538;8.352;2023-02-22T02:25:16;10.87;;;6.63;;
10535;SDS011;5316;49.538;8.352;2023-02-22T02:28:27;9.33;;;7.20;;
10535;SDS011;5316;49.538;8.352;2023-02-22T02:31:31;11.77;;;7.70;;
10535;SDS011;5316;49.538;8.352;2023-02-22T02:34:22;9.33;;;7.00;;
10535;SDS011;5316;49.538;8.352;2023-02-22T02:37:01;11.07;;;7.00;;
10535;SDS011;5316;49.538;8.352;2023-02-22T02:39:35;8.57;;;6.70;;
10535;SDS011;5316;49.538;8.352;2023-02-22T02:42:10;9.70;;;7.60;;
10535;SDS011;5316;49.538;8.352;2023-02-22T02:44:41;10.43;;;7.63;;
10535;SDS011;5316;49.538;8.352;2023-02-22T02:47:13;11.63;;;8.00;;
10535;SDS011;5316;49.538;8.352;2023-02-22T02:49:49;10.23;;;7.90;;
10535;SDS011;5316;49.538;8.352;2023-02-22T02:52:20;12.23;;;8.77;;
10535;SDS011;5316;49.538;8.352;2023-02-22T02:54:50;11.87;;;8.20;;
10535;SDS011;5316;49.538;8.352;2023-02-22T02:57:19;12.43;;;9.13;;
10535;SDS011;5316;49.538;8.352;2023-02-22T02:59:46;13.63;;;9.30;;
10535;SDS011;5316;49.538;8.352;2023-02-22T03:02:19;13.00;;;9.30;;
10535;SDS011;5316;49.538;8.352;2023-02-22T03:05:04;13.87;;;9.33;;
10535;SDS011;5316;49.538;8.352;2023-02-22T03:07:43;13.33;;;10.10;;
10535;SDS011;5316;49.538;8.352;2023-02-22T03:10:20;12.40;;;9.37;;
10535;SDS011;5316;49.538;8.352;2023-02-22T03:13:03;13.70;;;9.93;;
10535;SDS011;5316;49.538;8.352;2023-02-22T03:15:37;14.03;;;10.10;;
10535;SDS011;5316;49.538;8.352;2023-02-22T03:18:14;13.30;;;9.57;;
10535;SDS011;5316;49.538;8.352;2023-02-22T03:20:49;12.73;;;9.40;;
10535;SDS011;5316;49.538;8.352;2023-02-22T03:23:21;12.73;;;9.67;;
10535;SDS011;5316;49.538;8.352;2023-02-22T03:25:54;12.30;;;9.80;;
10535;SDS011;5316;49.538;8.352;2023-02-22T03:28:29;12.17;;;9.47;;
10535;SDS011;5316;49.538;8.352;2023-02-22T03:30:59;12.23;;;9.80;;
10535;SDS011;5316;49.538;8.352;2023-02-22T03:33:31;12.80;;;9.17;;
10535;SDS011;5316;49.538;8.352;2023-02-22T03:36:03;11.57;;;9.60;;
10535;SDS011;5316;49.538;8.352;2023-02-22T03:38:35;12.87;;;9.50;;
10535;SDS011;5316;49.538;8.352;2023-02-22T03:41:04;12.20;;;10.10;;
10535;SDS011;5316;49.538;8.352;2023-02-22T03:43:35;13.60;;;9.30;;
10535;SDS011;5316;49.538;8.352;2023-02-22T03:46:06;16.30;;;10.53;;
10535;SDS011;5316;49.538;8.352;2023-02-22T03:48:37;13.47;;;10.23;;
10535;SDS011;5316;49.538;8.352;2023-02-22T03:51:10;13.03;;;9.70;;
10535;SDS011;5316;49.538;8.352;2023-02-22T03:53:40;14.30;;;10.33;;
10535;SDS011;5316;49.538;8.352;2023-02-22T03:56:09;14.73;;;10.53;;
10535;SDS011;5316;49.538;8.352;2023-02-22T03:58:40;14.03;;;9.53;;
10535;SDS011;5316;49.538;8.352;2023-02-22T04:01:12;14.63;;;9.43;;
10535;SDS011;5316;49.538;8.352;2023-02-22T04:03:39;12.47;;;9.30;;
10535;SDS011;5316;49.538;8.352;2023-02-22T04:06:07;13.50;;;9.13;;
10535;SDS011;5316;49.538;8.352;2023-02-22T04:08:36;10.43;;;8.83;;
10535;SDS011;5316;49.538;8.352;2023-02-22T04:11:03;16.20;;;9.03;;
10535;SDS011;5316;49.538;8.352;2023-02-22T04:13:30;11.53;;;9.07;;
10535;SDS011;5316;49.538;8.352;2023-02-22T04:15:57;11.63;;;9.17;;
10535;SDS011;5316;49.538;8.352;2023-02-22T04:18:24;11.97;;;8.67;;
10535;SDS011;5316;49.538;8.352;2023-02-22T04:20:50;9.90;;;8.80;;
10535;SDS011;5316;49.538;8.352;2023-02-22T04:23:19;12.73;;;8.67;;
10535;SDS011;5316;49.538;8.352;2023-02-22T04:25:49;11.13;;;8.10;;
10535;SDS011;5316;49.538;8.352;2023-02-22T04:28:16;11.77;;;8.93;;
10535;SDS011;5316;49.538;8.352;2023-02-22T04:30:43;12.70;;;8.30;;
10535;SDS011;5316;49.538;8.352;2023-02-22T04:33:12;14.20;;;8.27;;
10535;SDS011;5316;49.538;8.352;2023-02-22T04:35:41;12.93;;;9.37;;
10535;SDS011;5316;49.538;8.352;2023-02-22T04:40:45;12.17;;;8.43;;
10535;SDS011;5316;49.538;8.352;2023-02-22T04:50:18;13.33;;;8.83;;
10535;SDS011;5316;49.538;8.352;2023-02-22T04:53:22;12.63;;;8.33;;
10535;SDS011;5316;49.538;8.352;2023-02-22T04:56:23;14.87;;;11.83;;
10535;SDS011;5316;49.538;8.352;2023-02-22T04:59:11;16.13;;;10.93;;
10535;SDS011;5316;49.538;8.352;2023-02-22T06:46:24;11.43;;;7.83;;
10535;SDS011;5316;49.538;8.352;2023-02-22T06:56:01;11.97;;;8.23;;
10535;SDS011;5316;49.538;8.352;2023-02-22T06:59:12;13.80;;;8.50;;
10535;SDS011;5316;49.538;8.352;2023-02-22T09:05:00;22.03;;;15.50;;
10535;SDS011;5316;49.538;8.352;2023-02-22T09:07:46;29.10;;;16.33;;
10535;SDS011;5316;49.538;8.352;2023-02-22T10:37:53;16.73;;;9.93;;
10535;SDS011;5316;49.538;8.352;2023-02-22T10:40:24;15.97;;;11.30;;
10535;SDS011;5316;49.538;8.352;2023-02-22T10:42:59;11.47;;;10.17;;
10535;SDS011;5316;49.538;8.352;2023-02-22T10:45:27;14.93;;;11.57;;
10535;SDS011;5316;49.538;8.352;2023-02-22T10:47:56;19.43;;;14.20;;
10535;SDS011;5316;49.538;8.352;2023-02-22T10:50:26;15.17;;;11.33;;
10535;SDS011;5316;49.538;8.352;2023-02-22T10:52:56;18.50;;;14.20;;
10535;SDS011;5316;49.538;8.352;2023-02-22T10:55:23;17.83;;;15.30;;
10535;SDS011;5316;49.538;8.352;2023-02-22T10:57:50;21.63;;;13.73;;
10535;SDS011;5316;49.538;8.352;2023-02-22T11:00:28;17.50;;;13.20;;
10535;SDS011;5316;49.538;8.352;2023-02-22T11:02:57;15.13;;;11.23;;
10535;SDS011;5316;49.538;8.352;2023-02-22T11:05:27;14.00;;;10.60;;
10535;SDS011;5316;49.538;8.352;2023-02-22T11:08:14;23.53;;;18.93;;
10535;SDS011;5316;49.538;8.352;2023-02-22T11:10:48;22.37;;;16.67;;
10535;SDS011;5316;49.538;8.352;2023-02-22T11:13:16;12.47;;;10.00;;
10535;SDS011;5316;49.538;8.352;2023-02-22T11:15:44;14.30;;;9.77;;
10535;SDS011;5316;49.538;8.352;2023-02-22T11:18:15;11.93;;;9.97;;
10535;SDS011;5316;49.538;8.352;2023-02-22T11:20:57;13.50;;;10.70;;
10535;SDS011;5316;49.538;8.352;2023-02-22T11:23:30;11.47;;;10.20;;
10535;SDS011;5316;49.538;8.352;2023-02-22T11:26:00;13.17;;;10.07;;
10535;SDS011;5316;49.538;8.352;2023-02-22T11:28:31;10.97;;;9.80;;
10535;SDS011;5316;49.538;8.352;2023-02-22T11:31:08;11.27;;;9.87;;
10535;SDS011;5316;49.538;8.352;2023-02-22T11:33:40;12.30;;;10.03;;
10535;SDS011;5316;49.538;8.352;2023-02-22T11:36:17;14.90;;;9.40;;
10535;SDS011;5316;49.538;8.352;2023-02-22T11:38:57;13.70;;;8.70;;
10535;SDS011;5316;49.538;8.352;2023-02-22T11:41:26;12.50;;;9.43;;
10535;SDS011;5316;49.538;8.352;2023-02-22T11:43:53;12.60;;;9.33;;
10535;SDS011;5316;49.538;8.352;2023-02-22T11:46:39;16.30;;;11.03;;
10535;SDS011;5316;49.538;8.352;2023-02-22T11:49:09;25.40;;;17.67;;
10535;SDS011;5316;49.538;8.352;2023-02-22T11:54:38;13.30;;;9.80;;
10535;SDS011;5316;49.538;8.352;2023-02-22T11:57:24;16.37;;;11.93;;
10535;SDS011;5316;49.538;8.352;2023-02-22T12:00:11;28.70;;;21.07;;
10535;SDS011;5316;49.538;8.352;2023-02-22T12:02:53;11.20;;;10.00;;
10535;SDS011;5316;49.538;8.352;2023-02-22T12:05:49;11.00;;;8.87;;
10535;SDS011;5316;49.538;8.352;2023-02-22T12:08:26;11.03;;;9.47;;
10535;SDS011;5316;49.538;8.352;2023-02-22T12:11:04;14.97;;;10.27;;
10535;SDS011;5316;49.538;8.352;2023-02-22T12:13:46;15.97;;;10.70;;
10535;SDS011;5316;49.538;8.352;2023-02-22T12:16:26;11.57;;;9.63;;
10535;SDS011;5316;49.538;8.352;2023-02-22T12:19:05;18.27;;;14.33;;
10535;SDS011;5316;49.538;8.352;2023-02-22T12:21:39;12.33;;;9.80;;
10535;SDS011;5316;49.538;8.352;2023-02-22T12:24:08;10.37;;;9.30;;
10535;SDS011;5316;49.538;8.352;2023-02-22T12:26:42;13.67;;;9.17;;
10535;SDS011;5316;49.538;8.352;2023-02-22T12:29:16;11.20;;;8.63;;
10535;SDS011;5316;49.538;8.352;2023-02-22T12:31:51;11.60;;;8.80;;
10535;SDS011;5316;49.538;8.352;2023-02-22T12:34:25;10.00;;;8.87;;
10535;SDS011;5316;49.538;8.352;2023-02-22T12:36:57;13.23;;;8.80;;
10535;SDS011;5316;49.538;8.352;2023-02-22T12:39:34;10.93;;;9.40;;
10535;SDS011;5316;49.538;8.352;2023-02-22T12:42:13;9.83;;;8.83;;
10535;SDS011;5316;49.538;8.352;2023-02-22T12:44:43;16.47;;;13.27;;
10535;SDS011;5316;49.538;8.352;2023-02-22T12:47:15;18.00;;;14.00;;
10535;SDS011;5316;49.538;8.352;2023-02-22T12:49:47;17.83;;;14.87;;
10535;SDS011;5316;49.538;8.352;2023-02-22T12:52:25;17.80;;;15.00;;
10535;SDS011;5316;49.538;8.352;2023-02-22T12:55:03;13.30;;;9.37;;
10535;SDS011;5316;49.538;8.352;2023-02-22T12:57:37;11.40;;;10.07;;
10535;SDS011;5316;49.538;8.352;2023-02-22T13:00:13;16.10;;;12.83;;
10535;SDS011;5316;49.538;8.352;2023-02-22T13:02:49;10.67;;;9.00;;
10535;SDS011;5316;49.538;8.352;2023-02-22T13:05:23;11.17;;;8.80;;
10535;SDS011;5316;49.538;8.352;2023-02-22T13:07:53;13.20;;;9.93;;
10535;SDS011;5316;49.538;8.352;2023-02-22T13:10:35;13.80;;;9.70;;
10535;SDS011;5316;49.538;8.352;2023-02-22T13:13:14;12.40;;;10.00;;
10535;SDS011;5316;49.538;8.352;2023-02-22T13:15:49;12.70;;;9.70;;
10535;SDS011;5316;49.538;8.352;2023-02-22T13:18:22;13.23;;;10.47;;
10535;SDS011;5316;49.538;8.352;2023-02-22T13:20:57;12.70;;;9.60;;
10535;SDS011;5316;49.538;8.352;2023-02-22T13:23:30;12.90;;;9.13;;
10535;SDS011;5316;49.538;8.352;2023-02-22T13:26:05;12.87;;;10.07;;
10535;SDS011;5316;49.538;8.352;2023-02-22T13:28:42;12.87;;;10.57;;
10535;SDS011;5316;49.538;8.352;2023-02-22T13:31:27;10.70;;;9.57;;
10535;SDS011;5316;49.538;8.352;2023-02-22T13:34:09;15.53;;;10.33;;
10535;SDS011;5316;49.538;8.352;2023-02-22T13:39:49;17.73;;;10.27;;
10535;SDS011;5316;49.538;8.352;2023-02-22T13:42:31;10.73;;;9.63;;
10535;SDS011;5316;49.538;8.352;2023-02-22T13:45:22;11.63;;;10.43;;
10535;SDS011;5316;49.538;8.352;2023-02-22T13:48:16;16.53;;;11.53;;
10535;SDS011;5316;49.538;8.352;2023-02-22T13:51:08;14.33;;;10.40;;
10535;SDS011;5316;49.538;8.352;2023-02-22T13:53:49;11.50;;;9.50;;
10535;SDS011;5316;49.538;8.352;2023-02-22T13:56:20;13.27;;;9.70;;
10535;SDS011;5316;49.538;8.352;2023-02-22T13:58:49;21.60;;;16.10;;
10535;SDS011;5316;49.538;8.352;2023-02-22T14:01:41;23.17;;;17.77;;
10535;SDS011;5316;49.538;8.352;2023-02-22T14:04:21;18.33;;;14.20;;
10535;SDS011;5316;49.538;8.352;2023-02-22T14:13:12;14.37;;;9.93;;
10535;SDS011;5316;49.538;8.352;2023-02-22T14:18:59;10.77;;;9.70;;
10535;SDS011;5316;49.538;8.352;2023-02-22T14:21:30;12.83;;;9.80;;
10535;SDS011;5316;49.538;8.352;2023-02-22T14:24:10;11.30;;;9.20;;
10535;SDS011;5316;49.538;8.352;2023-02-22T14:26:40;10.93;;;8.97;;
10535;SDS011;5316;49.538;8.352;2023-02-22T14:29:20;12.63;;;10.30;;
10535;SDS011;5316;49.538;8.352;2023-02-22T14:32:00;17.00;;;13.93;;
10535;SDS011;5316;49.538;8.352;2023-02-22T14:37:17;15.07;;;11.30;;
10535;SDS011;5316;49.538;8.352;2023-02-22T14:39:49;13.43;;;10.03;;
10535;SDS011;5316;49.538;8.352;2023-02-22T14:42:20;13.97;;;9.80;;
10535;SDS011;5316;49.538;8.352;2023-02-22T14:44:51;11.80;;;9.77;;
10535;SDS011;5316;49.538;8.352;2023-02-22T14:47:23;9.80;;;8.57;;
10535;SDS011;5316;49.538;8.352;2023-02-22T14:49:56;10.43;;;7.77;;
10535;SDS011;5316;49.538;8.352;2023-02-22T14:52:29;11.07;;;9.50;;
10535;SDS011;5316;49.538;8.352;2023-02-22T14:55:05;12.37;;;8.17;;
10535;SDS011;5316;49.538;8.352;2023-02-22T14:57:42;11.60;;;7.97;;
10535;SDS011;5316;49.538;8.352;2023-02-22T15:00:18;9.00;;;7.73;;
10535;SDS011;5316;49.538;8.352;2023-02-22T15:02:55;10.87;;;7.37;;
10535;SDS011;5316;49.538;8.352;2023-02-22T15:05:25;10.40;;;7.87;;
10535;SDS011;5316;49.538;8.352;2023-02-22T15:07:55;8.43;;;7.27;;
10535;SDS011;5316;49.538;8.352;2023-02-22T15:10:26;28.63;;;21.03;;
10535;SDS011;5316;49.538;8.352;2023-02-22T15:12:59;12.13;;;8.47;;
10535;SDS011;5316;49.538;8.352;2023-02-22T15:15:34;10.87;;;7.30;;
10535;SDS011;5316;49.538;8.352;2023-02-22T15:18:03;13.93;;;9.43;;
10535;SDS011;5316;49.538;8.352;2023-02-22T15:20:37;9.53;;;7.37;;
10535;SDS011;5316;49.538;8.352;2023-02-22T15:23:05;9.47;;;7.30;;
10535;SDS011;5316;49.538;8.352;2023-02-22T15:25:32;9.97;;;7.47;;
10535;SDS011;5316;49.538;8.352;2023-02-22T15:28:02;10.03;;;7.37;;
10535;SDS011;5316;49.538;8.352;2023-02-22T15:30:33;11.23;;;7.83;;
10535;SDS011;5316;49.538;8.352;2023-02-22T15:33:10;13.10;;;6.90;;
10535;SDS011;5316;49.538;8.352;2023-02-22T15:35:42;16.27;;;7.43;;
10535;SDS011;5316;49.538;8.352;2023-02-22T15:38:17;10.83;;;7.10;;
10535;SDS011;5316;49.538;8.352;2023-02-22T15:40:46;11.20;;;7.07;;
10535;SDS011;5316;49.538;8.352;2023-02-22T15:43:23;10.50;;;6.40;;
10535;SDS011;5316;49.538;8.352;2023-02-22T15:45:52;16.30;;;8.93;;
10535;SDS011;5316;49.538;8.352;2023-02-22T15:48:20;9.80;;;7.00;;
10535;SDS011;5316;49.538;8.352;2023-02-22T15:50:59;10.67;;;7.07;;
10535;SDS011;5316;49.538;8.352;2023-02-22T15:53:35;8.87;;;6.63;;
10535;SDS011;5316;49.538;8.352;2023-02-22T15:56:08;11.30;;;6.47;;
10535;SDS011;5316;49.538;8.352;2023-02-22T15:58:39;10.33;;;7.33;;
10535;SDS011;5316;49.538;8.352;2023-02-22T16:01:07;11.33;;;6.97;;
10535;SDS011;5316;49.538;8.352;2023-02-22T16:03:37;11.77;;;6.83;;
10535;SDS011;5316;49.538;8.352;2023-02-22T16:06:11;15.57;;;7.03;;
10535;SDS011;5316;49.538;8.352;2023-02-22T16:08:41;11.40;;;7.50;;
10535;SDS011;5316;49.538;8.352;2023-02-22T16:11:20;9.93;;;7.40;;
10535;SDS011;5316;49.538;8.352;2023-02-22T16:13:54;13.13;;;7.67;;
10535;SDS011;5316;49.538;8.352;2023-02-22T16:16:26;11.57;;;7.60;;
10535;SDS011;5316;49.538;8.352;2023-02-22T16:21:57;10.57;;;7.60;;
10535;SDS011;5316;49.538;8.352;2023-02-22T16:24:27;12.37;;;7.37;;
10535;SDS011;5316;49.538;8.352;2023-02-22T16:27:02;9.80;;;7.23;;
10535;SDS011;5316;49.538;8.352;2023-02-22T16:29:31;11.30;;;7.60;;
10535;SDS011;5316;49.538;8.352;2023-02-22T16:31:58;10.77;;;7.67;;
10535;SDS011;5316;49.538;8.352;2023-02-22T16:34:27;12.53;;;7.73;;
10535;SDS011;5316;49.538;8.352;2023-02-22T16:36:54;13.07;;;8.47;;
10535;SDS011;5316;49.538;8.352;2023-02-22T16:39:24;16.17;;;8.37;;
10535;SDS011;5316;49.538;8.352;2023-02-22T16:41:52;14.00;;;7.80;;
10535;SDS011;5316;49.538;8.352;2023-02-22T16:44:21;17.47;;;8.53;;
10535;SDS011;5316;49.538;8.352;2023-02-22T16:46:49;14.23;;;9.10;;
10535;SDS011;5316;49.538;8.352;2023-02-22T16:49:17;13.60;;;9.00;;
10535;SDS011;5316;49.538;8.352;2023-02-22T16:51:44;16.67;;;12.00;;
10535;SDS011;5316;49.538;8.352;2023-02-22T16:54:20;16.77;;;10.00;;
10535;SDS011;5316;49.538;8.352;2023-02-22T16:56:51;15.13;;;9.20;;
10535;SDS011;5316;49.538;8.352;2023-02-22T16:59:18;14.43;;;8.70;;
10535;SDS011;5316;49.538;8.352;2023-02-22T17:01:44;12.03;;;8.93;;
10535;SDS011;5316;49.538;8.352;2023-02-22T17:04:12;17.40;;;9.07;;
10535;SDS011;5316;49.538;8.352;2023-02-22T17:06:42;13.47;;;9.03;;
10535;SDS011;5316;49.538;8.352;2023-02-22T17:09:09;13.47;;;9.53;;
10535;SDS011;5316;49.538;8.352;2023-02-22T17:11:38;14.73;;;8.77;;
10535;SDS011;5316;49.538;8.352;2023-02-22T17:14:05;13.33;;;10.03;;
10535;SDS011;5316;49.538;8.352;2023-02-22T17:16:32;17.73;;;12.23;;
10535;SDS011;5316;49.538;8.352;2023-02-22T17:18:59;13.60;;;8.60;;
10535;SDS011;5316;49.538;8.352;2023-02-22T17:21:29;13.00;;;8.83;;
10535;SDS011;5316;49.538;8.352;2023-02-22T17:23:57;14.63;;;8.50;;
10535;SDS011;5316;49.538;8.352;2023-02-22T17:26:28;14.20;;;8.50;;
10535;SDS011;5316;49.538;8.352;2023-02-22T17:28:56;14.70;;;9.03;;
10535;SDS011;5316;49.538;8.352;2023-02-22T17:31:24;11.10;;;7.97;;
10535;SDS011;5316;49.538;8.352;2023-02-22T17:33:56;14.30;;;8.70;;
10535;SDS011;5316;49.538;8.352;2023-02-22T17:36:27;12.47;;;8.70;;
10535;SDS011;5316;49.538;8.352;2023-02-22T17:38:54;11.57;;;8.90;;
10535;SDS011;5316;49.538;8.352;2023-02-22T17:41:22;12.43;;;8.43;;
10535;SDS011;5316;49.538;8.352;2023-02-22T17:43:49;12.90;;;9.23;;
10535;SDS011;5316;49.538;8.352;2023-02-22T17:46:23;12.93;;;8.90;;
10535;SDS011;5316;49.538;8.352;2023-02-22T17:48:50;14.57;;;9.10;;
10535;SDS011;5316;49.538;8.352;2023-02-22T17:51:19;11.20;;;8.33;;
10535;SDS011;5316;49.538;8.352;2023-02-22T17:53:48;10.13;;;8.07;;
10535;SDS011;5316;49.538;8.352;2023-02-22T17:56:16;16.20;;;12.13;;
10535;SDS011;5316;49.538;8.352;2023-02-22T17:58:44;16.63;;;9.53;;
10535;SDS011;5316;49.538;8.352;2023-02-22T18:01:20;14.17;;;9.70;;
10535;SDS011;5316;49.538;8.352;2023-02-22T18:03:51;11.37;;;9.40;;
10535;SDS011;5316;49.538;8.352;2023-02-22T18:06:19;14.30;;;10.00;;
10535;SDS011;5316;49.538;8.352;2023-02-22T18:08:48;13.77;;;10.33;;
10535;SDS011;5316;49.538;8.352;2023-02-22T18:11:17;21.37;;;12.67;;
10535;SDS011;5316;49.538;8.352;2023-02-22T18:13:44;16.90;;;11.87;;
10535;SDS011;5316;49.538;8.352;2023-02-22T18:16:11;16.07;;;11.70;;
10535;SDS011;5316;49.538;8.352;2023-02-22T18:18:43;42.10;;;26.57;;
10535;SDS011;5316;49.538;8.352;2023-02-22T18:21:11;24.47;;;16.60;;
10535;SDS011;5316;49.538;8.352;2023-02-22T18:23:39;21.87;;;13.00;;
10535;SDS011;5316;49.538;8.352;2023-02-22T18:26:08;18.83;;;11.90;;
10535;SDS011;5316;49.538;8.352;2023-02-22T18:28:41;17.57;;;12.93;;
10535;SDS011;5316;49.538;8.352;2023-02-22T18:31:10;27.53;;;19.87;;
10535;SDS011;5316;49.538;8.352;2023-02-22T18:33:38;28.73;;;22.53;;
10535;SDS011;5316;49.538;8.352;2023-02-22T18:36:08;29.93;;;21.43;;
10535;SDS011;5316;49.538;8.352;2023-02-22T18:38:40;23.43;;;17.60;;
10535;SDS011;5316;49.538;8.352;2023-02-22T18:41:10;23.03;;;18.67;;
10535;SDS011;5316;49.538;8.352;2023-02-22T18:43:39;23.83;;;18.77;;
10535;SDS011;5316;49.538;8.352;2023-02-22T18:46:07;27.93;;;19.50;;
10535;SDS011;5316;49.538;8.352;2023-02-22T18:48:36;27.20;;;21.17;;
10535;SDS011;5316;49.538;8.352;2023-02-22T18:51:05;32.00;;;23.13;;
10535;SDS011;5316;49.538;8.352;2023-02-22T18:53:35;26.00;;;21.20;;
10535;SDS011;5316;49.538;8.352;2023-02-22T18:56:04;29.90;;;22.17;;
10535;SDS011;5316;49.538;8.352;2023-02-22T18:58:36;29.33;;;21.13;;
10535;SDS011;5316;49.538;8.352;2023-02-22T19:01:07;32.10;;;23.37;;
10535;SDS011;5316;49.538;8.352;2023-02-22T19:03:40;28.87;;;21.80;;
10535;SDS011;5316;49.538;8.352;2023-02-22T19:06:17;28.90;;;21.93;;
10535;SDS011;5316;49.538;8.352;2023-02-22T19:08:47;31.97;;;21.87;;
10535;SDS011;5316;49.538;8.352;2023-02-22T19:11:16;27.63;;;21.57;;
10535;SDS011;5316;49.538;8.352;2023-02-22T19:13:44;28.57;;;21.50;;
10535;SDS011;5316;49.538;8.352;2023-02-22T19:16:13;29.53;;;21.70;;
10535;SDS011;5316;49.538;8.352;2023-02-22T19:18:57;30.17;;;22.70;;
10535;SDS011;5316;49.538;8.352;2023-02-22T19:21:29;31.70;;;22.23;;
10535;SDS011;5316;49.538;8.352;2023-02-22T19:24:09;27.70;;;22.10;;
10535;SDS011;5316;49.538;8.352;2023-02-22T19:26:38;31.70;;;23.23;;
10535;SDS011;5316;49.538;8.352;2023-02-22T19:29:14;28.93;;;23.13;;
10535;SDS011;5316;49.538;8.352;2023-02-22T19:31:42;30.93;;;23.97;;
10535;SDS011;5316;49.538;8.352;2023-02-22T19:34:15;32.13;;;23.97;;
10535;SDS011;5316;49.538;8.352;2023-02-22T19:36:46;31.27;;;22.57;;
10535;SDS011;5316;49.538;8.352;2023-02-22T19:39:17;41.70;;;30.23;;
10535;SDS011;5316;49.538;8.352;2023-02-22T19:41:49;29.93;;;23.60;;
10535;SDS011;5316;49.538;8.352;2023-02-22T19:44:17;32.10;;;23.97;;
10535;SDS011;5316;49.538;8.352;2023-02-22T19:46:47;28.87;;;22.70;;
10535;SDS011;5316;49.538;8.352;2023-02-22T20:03:40;31.43;;;23.77;;
10535;SDS011;5316;49.538;8.352;2023-02-22T20:06:09;30.43;;;23.87;;
10535;SDS011;5316;49.538;8.352;2023-02-22T20:08:40;31.33;;;24.27;;
10535;SDS011;5316;49.538;8.352;2023-02-22T20:11:09;32.80;;;24.30;;
10535;SDS011;5316;49.538;8.352;2023-02-22T20:13:38;34.13;;;23.83;;
10535;SDS011;5316;49.538;8.352;2023-02-22T20:16:11;30.60;;;23.80;;
10535;SDS011;5316;49.538;8.352;2023-02-22T22:55:15;32.03;;;24.00;;
10535;SDS011;5316;49.538;8.352;2023-02-22T22:58:15;31.57;;;25.63;;
10535;SDS011;5316;49.538;8.352;2023-02-22T23:08:17;31.43;;;24.70;;
